Aviation Digital Data Service (ADDS)

Output produced by TAFs form (2344 UTC 15 December 2017)
found at http://www.aviationweather.gov/adds/tafs/
 
KMRB 152328Z 1600/1624 VRB03KT P6SM BKN045 
     FM160200 26006KT P6SM FEW045 
     FM160700 26006KT P6SM SKC 
     FM161100 22006KT P6SM SCT200 
     FM161500 24010KT P6SM SCT070 
     FM162200 26006KT P6SM FEW110